Time;durP1;ratioP1;P1;durP2;ratioP2;P2;SDS_P1;SDS_P2;PMS_P1;PMS_P2;Temp;Humidity;BMP_temperature;BMP_pressure;BME280_temperature;BME280_humidity;BME280_pressure;Samples;Min_cycle;Max_cycle;Signal;HPM_P1;HPM_P2
2023/02/22 00:02:09;;;;;;;13.93;5.03;;;11.30;99.90;;;;;;5077417;28;20539;-80
2023/02/22 00:04:38;;;;;;;7.38;2.88;;;11.30;99.90;;;;;;5078055;28;20286;-79
2023/02/22 00:07:05;;;;;;;9.07;3.45;;;11.30;99.90;;;;;;5083224;28;20609;-80
2023/02/22 00:09:32;;;;;;;8.23;3.33;;;11.30;99.90;;;;;;5079355;28;20239;-80
2023/02/22 00:12:00;;;;;;;6.90;3.90;;;11.20;99.90;;;;;;5084992;28;20226;-80
2023/02/22 00:14:31;;;;;;;6.22;3.35;;;11.20;99.90;;;;;;5075266;28;20223;-79
2023/02/22 00:16:58;;;;;;;7.63;4.07;;;11.20;99.90;;;;;;5077938;28;20219;-80
2023/02/22 00:19:28;;;;;;;9.30;3.90;;;11.20;99.90;;;;;;5079631;28;20242;-80
2023/02/22 00:21:56;;;;;;;6.57;3.53;;;11.20;99.90;;;;;;5085844;28;20216;-79
2023/02/22 00:24:24;;;;;;;7.25;3.50;;;11.20;99.90;;;;;;5077622;28;20245;-79
2023/02/22 00:26:54;;;;;;;8.25;3.28;;;11.20;99.90;;;;;;5086508;28;20234;-79
2023/02/22 00:29:22;;;;;;;9.40;3.83;;;11.20;99.90;;;;;;5083028;28;20219;-79
2023/02/22 00:31:50;;;;;;;8.82;3.85;;;11.20;99.90;;;;;;5087723;28;20661;-80
2023/02/22 00:34:18;;;;;;;8.18;4.13;;;11.20;99.90;;;;;;5086116;28;20232;-80
2023/02/22 00:36:46;;;;;;;9.50;4.00;;;11.20;99.90;;;;;;5088462;28;20230;-80
2023/02/22 00:39:14;;;;;;;7.65;3.42;;;11.20;99.90;;;;;;5084272;28;20230;-76
2023/02/22 00:41:41;;;;;;;13.00;3.70;;;11.20;99.90;;;;;;5083544;28;20269;-77
2023/02/22 00:44:08;;;;;;;11.40;3.55;;;11.20;99.90;;;;;;5088824;28;20283;-83
2023/02/22 00:46:35;;;;;;;8.77;3.72;;;11.20;99.90;;;;;;5071501;28;20216;-83
2023/02/22 00:49:04;;;;;;;8.05;2.92;;;11.20;99.90;;;;;;5084100;28;20224;-83
2023/02/22 00:51:36;;;;;;;4.45;2.92;;;11.20;99.90;;;;;;5078800;28;20216;-85
2023/02/22 00:54:04;;;;;;;15.65;4.38;;;11.10;99.90;;;;;;5090742;28;20215;-84
2023/02/22 00:56:33;;;;;;;8.35;3.92;;;11.10;99.90;;;;;;5085795;28;20677;-83
2023/02/22 00:59:00;;;;;;;6.55;3.50;;;11.10;99.90;;;;;;5082925;28;20220;-83
2023/02/22 01:01:28;;;;;;;9.73;3.83;;;11.10;99.90;;;;;;5082141;28;20262;-76
2023/02/22 01:04:05;;;;;;;9.18;4.10;;;11.10;99.90;;;;;;5087125;28;20208;-76
2023/02/22 01:06:34;;;;;;;7.97;3.55;;;11.00;99.90;;;;;;5082525;28;20582;-76
2023/02/22 01:09:02;;;;;;;8.13;3.17;;;11.00;99.90;;;;;;5080228;28;20693;-77
2023/02/22 01:11:29;;;;;;;9.77;4.30;;;11.00;99.90;;;;;;5084613;28;20343;-76
2023/02/22 01:13:58;;;;;;;12.00;3.72;;;11.00;99.90;;;;;;5094807;28;20236;-76
2023/02/22 01:16:26;;;;;;;10.50;3.78;;;11.00;99.90;;;;;;5086650;28;20265;-76
2023/02/22 01:18:53;;;;;;;7.32;3.95;;;11.00;99.90;;;;;;5099161;28;20311;-81
2023/02/22 01:21:20;;;;;;;10.27;4.60;;;11.00;99.90;;;;;;5100465;28;20241;-81
2023/02/22 01:23:48;;;;;;;9.23;3.67;;;10.90;99.90;;;;;;5103795;28;20265;-82
2023/02/22 01:26:15;;;;;;;13.65;4.82;;;10.90;99.90;;;;;;5109489;28;20322;-81
2023/02/22 01:28:42;;;;;;;7.40;4.20;;;10.90;99.90;;;;;;5085722;28;20234;-82
2023/02/22 01:31:11;;;;;;;7.50;4.10;;;10.90;99.90;;;;;;5091291;28;20215;-81
2023/02/22 01:33:39;;;;;;;6.63;3.90;;;10.90;99.90;;;;;;5096959;28;20298;-81
2023/02/22 01:36:10;;;;;;;9.80;3.17;;;10.90;99.90;;;;;;5090608;28;20244;-81
2023/02/22 01:38:37;;;;;;;11.38;3.78;;;10.90;99.90;;;;;;5085642;28;20646;-83
2023/02/22 01:41:06;;;;;;;8.30;3.47;;;10.90;99.90;;;;;;5087967;28;20226;-83
2023/02/22 01:43:33;;;;;;;6.65;3.17;;;10.90;99.90;;;;;;5105121;28;20222;-82
2023/02/22 01:46:04;;;;;;;9.00;3.25;;;10.90;99.90;;;;;;5083880;28;20315;-76
2023/02/22 01:48:37;;;;;;;14.77;4.82;;;10.90;99.90;;;;;;5085613;28;20242;-77
2023/02/22 01:51:10;;;;;;;10.50;3.75;;;10.80;99.90;;;;;;5076261;28;20232;-76
2023/02/22 01:53:45;;;;;;;15.95;4.55;;;10.80;99.90;;;;;;5084126;28;20231;-77
2023/02/22 01:56:15;;;;;;;10.05;3.38;;;10.80;99.90;;;;;;5081401;28;20243;-77
2023/02/22 01:58:46;;;;;;;10.80;3.63;;;10.80;99.90;;;;;;5081311;28;20286;-76
2023/02/22 02:01:18;;;;;;;9.60;3.15;;;10.80;99.90;;;;;;5069892;28;20271;-77
2023/02/22 02:03:47;;;;;;;7.40;3.22;;;10.80;99.90;;;;;;5100694;28;20280;-77
2023/02/22 02:06:22;;;;;;;15.98;4.50;;;10.80;99.90;;;;;;5099091;28;20233;-77
2023/02/22 02:08:55;;;;;;;11.23;3.97;;;10.80;99.90;;;;;;5097663;28;20215;-77
2023/02/22 02:11:26;;;;;;;18.25;4.82;;;10.80;99.90;;;;;;5107070;28;20222;-77
2023/02/22 02:13:55;;;;;;;15.40;4.65;;;10.80;99.90;;;;;;5100369;28;20239;-77
2023/02/22 02:16:26;;;;;;;12.23;5.03;;;10.70;99.90;;;;;;5079137;28;20235;-81
2023/02/22 02:18:54;;;;;;;16.90;4.22;;;10.70;99.90;;;;;;5093794;28;20249;-77
2023/02/22 02:21:57;;;;;;;8.80;4.15;;;10.70;99.90;;;;;;5105436;28;20223;-77
2023/02/22 02:25:04;;;;;;;12.70;4.43;;;10.70;99.90;;;;;;5104418;28;20666;-80
2023/02/22 02:27:42;;;;;;;11.88;3.75;;;10.70;99.90;;;;;;5107342;28;20230;-81
2023/02/22 02:30:52;;;;;;;6.40;3.67;;;10.60;99.90;;;;;;5098748;28;20227;-77
2023/02/22 02:33:26;;;;;;;10.00;3.50;;;10.60;99.90;;;;;;4999293;28;20230;-81
2023/02/22 02:36:00;;;;;;;10.18;4.20;;;10.60;99.90;;;;;;4987342;28;20308;-77
2023/02/22 02:38:34;;;;;;;17.02;4.75;;;10.60;99.90;;;;;;5055574;28;20231;-77
2023/02/22 02:41:10;;;;;;;10.27;3.97;;;10.60;99.90;;;;;;5093392;28;20274;-81
2023/02/22 02:43:43;;;;;;;10.75;3.70;;;10.50;99.90;;;;;;5098573;28;20222;-81
2023/02/22 02:46:16;;;;;;;14.18;4.82;;;10.50;99.90;;;;;;5094838;28;20234;-76
2023/02/22 02:48:53;;;;;;;13.00;5.30;;;10.50;99.90;;;;;;5106039;28;20661;-76
2023/02/22 02:51:24;;;;;;;11.50;4.03;;;10.50;99.90;;;;;;5098351;28;20238;-79
2023/02/22 02:53:53;;;;;;;10.88;3.95;;;10.50;99.90;;;;;;5100494;28;20230;-77
2023/02/22 02:56:22;;;;;;;10.77;3.60;;;10.50;99.90;;;;;;5100618;28;20519;-80
2023/02/22 02:58:51;;;;;;;9.23;5.00;;;10.50;99.90;;;;;;5092695;28;20648;-76
2023/02/22 03:01:35;;;;;;;9.45;4.10;;;10.50;99.90;;;;;;5106634;28;20216;-79
2023/02/22 03:04:16;;;;;;;11.88;3.75;;;10.40;99.90;;;;;;5099600;28;20216;-75
2023/02/22 03:07:00;;;;;;;10.45;3.35;;;10.40;99.90;;;;;;5101040;28;20215;-81
2023/02/22 03:09:45;;;;;;;12.70;4.85;;;10.40;99.90;;;;;;5099568;28;20242;-76
2023/02/22 03:12:28;;;;;;;14.77;5.15;;;10.40;99.90;;;;;;5100400;28;20782;-76
2023/02/22 03:15:06;;;;;;;16.98;5.18;;;10.40;99.90;;;;;;5089411;28;20218;-78
2023/02/22 03:17:44;;;;;;;18.40;6.32;;;10.40;99.90;;;;;;5098433;28;20222;-80
2023/02/22 03:20:18;;;;;;;10.85;4.60;;;10.30;99.90;;;;;;5102137;28;20218;-76
2023/02/22 03:22:54;;;;;;;7.20;3.47;;;10.30;99.90;;;;;;5098582;28;20313;-80
2023/02/22 03:25:28;;;;;;;12.25;4.97;;;10.30;99.90;;;;;;5099433;28;20215;-80
2023/02/22 03:28:01;;;;;;;15.00;3.90;;;10.30;99.90;;;;;;5110094;28;20660;-76
2023/02/22 03:30:37;;;;;;;7.97;4.00;;;10.30;99.90;;;;;;5099867;28;20225;-76
2023/02/22 03:33:09;;;;;;;12.88;4.20;;;10.30;99.90;;;;;;5099205;28;20660;-76
2023/02/22 03:35:41;;;;;;;14.98;4.28;;;10.30;99.90;;;;;;5104487;28;20592;-76
2023/02/22 03:38:11;;;;;;;10.80;3.63;;;10.30;99.90;;;;;;5099249;28;20227;-75
2023/02/22 03:40:44;;;;;;;10.98;3.90;;;10.30;99.90;;;;;;5088411;28;20575;-81
2023/02/22 03:43:16;;;;;;;14.52;4.28;;;10.30;99.90;;;;;;5098920;28;20223;-77
2023/02/22 03:45:45;;;;;;;10.45;3.85;;;10.40;99.90;;;;;;5102032;28;20218;-76
2023/02/22 03:48:22;;;;;;;12.10;3.88;;;10.40;99.90;;;;;;5099112;28;20235;-79
2023/02/22 03:50:51;;;;;;;10.38;3.55;;;10.40;99.90;;;;;;5108474;28;20279;-81
2023/02/22 03:53:21;;;;;;;8.98;3.15;;;10.40;99.90;;;;;;5099260;28;20238;-81
2023/02/22 03:55:51;;;;;;;19.27;5.25;;;10.40;99.90;;;;;;5101095;28;20223;-80
2023/02/22 03:58:21;;;;;;;11.02;3.30;;;10.40;99.90;;;;;;5098506;28;20227;-82
2023/02/22 04:00:51;;;;;;;10.57;3.53;;;10.40;99.90;;;;;;5103628;28;20226;-78
2023/02/22 04:03:19;;;;;;;6.80;3.45;;;10.40;99.90;;;;;;5105668;28;20219;-78
2023/02/22 04:05:50;;;;;;;13.95;3.72;;;10.40;99.90;;;;;;5110936;28;20684;-77
2023/02/22 04:08:17;;;;;;;9.07;3.67;;;10.40;99.90;;;;;;5108206;28;20245;-82
2023/02/22 04:10:44;;;;;;;11.82;4.15;;;10.50;99.90;;;;;;5096305;28;20262;-78
2023/02/22 04:13:13;;;;;;;8.68;3.63;;;10.40;99.90;;;;;;5100487;28;20226;-80
2023/02/22 04:15:40;;;;;;;11.98;3.40;;;10.50;99.90;;;;;;5103325;28;20226;-77
2023/02/22 04:18:07;;;;;;;15.00;4.60;;;10.50;99.90;;;;;;5102105;28;20234;-76
2023/02/22 04:20:35;;;;;;;8.45;4.30;;;10.40;99.90;;;;;;5109998;28;20227;-79
2023/02/22 04:23:03;;;;;;;10.70;3.50;;;10.40;99.90;;;;;;5107054;28;20222;-76
2023/02/22 04:25:30;;;;;;;9.73;3.67;;;10.40;99.90;;;;;;5091678;28;20218;-80
2023/02/22 04:27:57;;;;;;;20.85;4.90;;;10.40;99.90;;;;;;5107256;28;20226;-77
2023/02/22 04:30:25;;;;;;;7.88;3.88;;;10.30;99.90;;;;;;5103572;28;20295;-76
2023/02/22 04:32:52;;;;;;;12.25;4.53;;;10.30;99.90;;;;;;5102494;28;20222;-76
2023/02/22 04:35:20;;;;;;;11.00;3.95;;;10.30;99.90;;;;;;5108203;28;20219;-76
2023/02/22 04:37:47;;;;;;;14.00;5.13;;;10.30;99.90;;;;;;5109745;28;20254;-77
2023/02/22 04:40:17;;;;;;;8.52;3.63;;;10.20;99.90;;;;;;5103527;28;20226;-81
2023/02/22 04:42:44;;;;;;;10.07;3.33;;;10.20;99.90;;;;;;5102694;28;20231;-76
2023/02/22 04:45:11;;;;;;;9.15;2.90;;;10.20;99.90;;;;;;5107396;28;20749;-80
2023/02/22 04:47:38;;;;;;;7.78;3.55;;;10.20;99.90;;;;;;5106027;28;20280;-80
2023/02/22 04:50:07;;;;;;;13.75;4.35;;;10.20;99.90;;;;;;5110434;28;20223;-80
2023/02/22 04:52:34;;;;;;;6.82;3.50;;;10.20;99.90;;;;;;5102537;28;20694;-80
2023/02/22 04:55:01;;;;;;;11.43;4.03;;;10.20;99.90;;;;;;5106164;28;20231;-80
2023/02/22 04:57:30;;;;;;;15.80;4.03;;;10.20;99.90;;;;;;5103324;28;20226;-76
2023/02/22 05:00:00;;;;;;;10.73;3.60;;;10.20;99.90;;;;;;5090998;28;20228;-76
2023/02/22 05:02:27;;;;;;;10.43;4.18;;;10.20;99.90;;;;;;5105577;28;20219;-76
2023/02/22 05:04:55;;;;;;;10.05;5.10;;;10.20;99.90;;;;;;5106699;28;20709;-80
2023/02/22 05:07:22;;;;;;;8.15;4.40;;;10.20;99.90;;;;;;5102156;28;20306;-76
2023/02/22 05:09:51;;;;;;;14.98;4.93;;;10.20;99.90;;;;;;5103746;28;20306;-79
2023/02/22 05:12:20;;;;;;;12.63;4.68;;;10.20;99.90;;;;;;5080672;28;20266;-76
2023/02/22 05:14:49;;;;;;;24.58;11.00;;;10.20;99.90;;;;;;5074821;28;20227;-80
2023/02/22 05:17:16;;;;;;;9.05;5.38;;;10.20;99.90;;;;;;5073032;28;20228;-76
2023/02/22 05:19:43;;;;;;;16.70;5.30;;;10.20;99.90;;;;;;5075674;28;20220;-76
2023/02/22 05:22:10;;;;;;;10.50;3.90;;;10.10;99.90;;;;;;5075189;28;20220;-80
2023/02/22 05:24:37;;;;;;;9.70;4.10;;;10.20;99.90;;;;;;5075274;28;20536;-79
2023/02/22 05:27:05;;;;;;;11.15;3.80;;;10.20;99.90;;;;;;5075159;28;20241;-81
2023/02/22 05:29:32;;;;;;;9.57;4.05;;;10.20;99.90;;;;;;5074450;28;20227;-81
2023/02/22 05:32:01;;;;;;;11.25;4.05;;;10.20;99.90;;;;;;5075375;28;20231;-80
2023/02/22 05:34:28;;;;;;;8.35;3.63;;;10.20;99.90;;;;;;5074325;28;20974;-81
2023/02/22 05:36:56;;;;;;;10.73;4.32;;;10.20;99.90;;;;;;5075915;28;20224;-80
2023/02/22 05:39:23;;;;;;;7.35;3.22;;;10.20;99.90;;;;;;5074577;28;20283;-80
2023/02/22 05:41:51;;;;;;;8.65;3.67;;;10.20;99.90;;;;;;5075800;28;20220;-80
2023/02/22 05:44:18;;;;;;;7.05;3.65;;;10.20;99.90;;;;;;5075306;28;20220;-79
2023/02/22 05:46:45;;;;;;;10.18;3.85;;;10.20;99.90;;;;;;5074629;28;20216;-76
2023/02/22 05:49:14;;;;;;;10.30;3.55;;;10.20;99.90;;;;;;5074441;28;20748;-77
2023/02/22 05:51:44;;;;;;;10.02;3.35;;;10.20;99.90;;;;;;5075068;28;20532;-79
2023/02/22 05:54:11;;;;;;;11.48;4.30;;;10.30;99.90;;;;;;5074917;28;20236;-80
2023/02/22 05:56:38;;;;;;;10.45;4.70;;;10.30;99.90;;;;;;5075717;28;20235;-79
2023/02/22 05:59:06;;;;;;;16.92;5.75;;;10.30;99.90;;;;;;5075362;28;20228;-76
2023/02/22 06:01:33;;;;;;;13.45;5.57;;;10.30;99.90;;;;;;5073666;28;20230;-76
2023/02/22 06:04:00;;;;;;;11.75;4.38;;;10.40;99.90;;;;;;5075098;28;20220;-80
2023/02/22 06:06:29;;;;;;;20.08;7.95;;;10.40;99.90;;;;;;5074213;28;20727;-76
2023/02/22 06:08:56;;;;;;;17.73;7.47;;;10.40;99.90;;;;;;5074966;28;20243;-80
2023/02/22 06:11:23;;;;;;;14.52;7.43;;;10.40;99.90;;;;;;5074618;28;20264;-80
2023/02/22 06:13:51;;;;;;;12.30;7.13;;;10.40;99.90;;;;;;5074536;28;20286;-76
2023/02/22 06:16:23;;;;;;;16.45;8.70;;;10.40;99.90;;;;;;5073630;28;20228;-80
2023/02/22 06:18:50;;;;;;;26.77;8.43;;;10.40;99.90;;;;;;5074859;28;20672;-80
2023/02/22 06:21:17;;;;;;;13.02;7.63;;;10.40;99.90;;;;;;5073210;28;20224;-76
2023/02/22 06:23:46;;;;;;;18.85;10.40;;;10.40;99.90;;;;;;5073264;28;20293;-80
2023/02/22 06:26:16;;;;;;;25.00;12.35;;;10.40;99.90;;;;;;5073931;28;20727;-76
2023/02/22 06:28:48;;;;;;;21.30;9.52;;;10.40;99.90;;;;;;5073265;28;20232;-80
2023/02/22 06:31:16;;;;;;;23.30;8.98;;;10.40;99.90;;;;;;5073797;28;20224;-76
2023/02/22 06:33:43;;;;;;;17.33;7.75;;;10.40;99.90;;;;;;5072009;28;20228;-80
2023/02/22 06:36:10;;;;;;;16.23;7.53;;;10.40;99.90;;;;;;5073910;28;20594;-76
2023/02/22 06:38:37;;;;;;;14.50;7.35;;;10.50;99.90;;;;;;5073339;28;20224;-76
2023/02/22 06:41:06;;;;;;;18.95;9.05;;;10.50;99.90;;;;;;5073217;28;20677;-76
2023/02/22 06:43:33;;;;;;;17.52;7.05;;;10.50;99.90;;;;;;5073718;28;20298;-80
2023/02/22 06:46:01;;;;;;;11.98;5.82;;;10.50;99.90;;;;;;5073339;28;20295;-76
2023/02/22 06:48:28;;;;;;;21.65;5.38;;;10.50;99.90;;;;;;5073049;28;20742;-79
2023/02/22 06:50:56;;;;;;;17.95;5.78;;;10.50;99.90;;;;;;5074862;28;20228;-80
2023/02/22 06:53:23;;;;;;;13.25;5.50;;;10.50;99.90;;;;;;5073747;28;20243;-78
2023/02/22 06:55:53;;;;;;;16.65;5.68;;;10.50;99.90;;;;;;5074262;28;20277;-80
2023/02/22 06:58:21;;;;;;;12.35;5.90;;;10.50;99.90;;;;;;5073983;28;20231;-80
2023/02/22 07:00:48;;;;;;;20.95;5.40;;;10.50;99.90;;;;;;5074320;28;20223;-79
2023/02/22 07:03:16;;;;;;;13.07;5.57;;;10.60;99.90;;;;;;5073997;28;20289;-80
2023/02/22 07:05:46;;;;;;;16.08;6.45;;;10.60;99.90;;;;;;5074036;28;20248;-80
2023/02/22 07:08:13;;;;;;;20.83;6.82;;;10.60;99.90;;;;;;5074240;28;20262;-80
2023/02/22 07:10:41;;;;;;;9.73;4.57;;;10.60;99.90;;;;;;5074094;28;20251;-79
2023/02/22 07:13:12;;;;;;;19.95;5.78;;;10.60;99.90;;;;;;5073330;28;20232;-76
2023/02/22 07:15:40;;;;;;;10.25;5.15;;;10.60;99.90;;;;;;5073856;28;20273;-76
2023/02/22 07:18:08;;;;;;;27.70;7.90;;;10.60;99.90;;;;;;5073174;28;20634;-76
2023/02/22 07:20:35;;;;;;;19.98;7.30;;;10.60;99.90;;;;;;5072072;28;20220;-80
2023/02/22 07:23:03;;;;;;;14.82;6.47;;;10.70;99.90;;;;;;5079064;28;20220;-79
2023/02/22 07:25:30;;;;;;;17.55;6.43;;;10.70;99.90;;;;;;5078481;28;20224;-79
2023/02/22 07:27:58;;;;;;;24.08;7.72;;;10.70;99.90;;;;;;5076184;28;20247;-76
2023/02/22 07:30:29;;;;;;;19.63;6.00;;;10.70;99.90;;;;;;5076320;28;20306;-80
2023/02/22 07:32:59;;;;;;;13.68;5.90;;;10.70;99.90;;;;;;5074504;28;20239;-80
2023/02/22 07:35:28;;;;;;;17.40;6.45;;;10.80;99.90;;;;;;5081423;28;20232;-81
2023/02/22 07:37:55;;;;;;;17.00;5.63;;;10.80;99.90;;;;;;5073926;28;20286;-76
2023/02/22 07:40:24;;;;;;;12.10;5.80;;;10.80;99.90;;;;;;5074000;28;20318;-76
2023/02/22 07:42:53;;;;;;;16.38;6.45;;;10.80;99.90;;;;;;5072878;28;20311;-76
2023/02/22 07:45:20;;;;;;;12.50;5.75;;;10.90;99.90;;;;;;5076427;28;20291;-80
2023/02/22 07:47:47;;;;;;;19.08;8.20;;;10.90;99.90;;;;;;5077915;28;20227;-76
2023/02/22 07:50:17;;;;;;;16.70;7.75;;;10.90;99.90;;;;;;5070672;28;20284;-81
2023/02/22 07:52:46;;;;;;;17.50;8.27;;;10.90;99.90;;;;;;5077468;28;20274;-79
2023/02/22 07:55:15;;;;;;;16.35;9.38;;;10.90;99.90;;;;;;5078102;28;20250;-79
2023/02/22 07:57:43;;;;;;;17.40;10.65;;;10.90;99.90;;;;;;5077676;28;20266;-79
2023/02/22 08:00:13;;;;;;;22.98;13.15;;;10.90;99.90;;;;;;5075973;28;20239;-79
2023/02/22 08:02:40;;;;;;;22.65;11.98;;;10.90;99.90;;;;;;5075193;28;20220;-79
2023/02/22 08:05:09;;;;;;;19.13;9.70;;;11.00;99.90;;;;;;5076969;28;20314;-80
2023/02/22 08:07:42;;;;;;;14.60;7.82;;;10.90;99.90;;;;;;5073587;28;20745;-81
2023/02/22 08:10:10;;;;;;;20.52;10.07;;;11.00;99.90;;;;;;5072642;28;20342;-80
2023/02/22 08:12:38;;;;;;;25.17;10.65;;;11.00;99.90;;;;;;5073166;28;20223;-81
2023/02/22 08:15:15;;;;;;;23.30;10.32;;;11.00;99.90;;;;;;5072301;28;20238;-80
2023/02/22 08:20:32;;;;;;;20.65;8.20;;;10.90;99.90;;;;;;4980709;28;20218;-77
2023/02/22 08:23:01;;;;;;;15.95;7.28;;;10.90;99.90;;;;;;5066241;28;20231;-78
2023/02/22 08:25:29;;;;;;;19.60;9.27;;;11.00;99.90;;;;;;5072595;28;20669;-77
2023/02/22 08:28:00;;;;;;;23.73;9.20;;;11.00;99.90;;;;;;5071539;28;20220;-77
2023/02/22 08:30:33;;;;;;;21.02;9.13;;;11.00;99.90;;;;;;5072614;28;20277;-77
2023/02/22 08:33:01;;;;;;;22.45;8.88;;;11.00;99.90;;;;;;5072142;28;20597;-78
2023/02/22 08:35:30;;;;;;;15.90;6.75;;;11.00;99.90;;;;;;5072039;28;20228;-77
2023/02/22 08:38:03;;;;;;;12.95;9.32;;;11.00;99.90;;;;;;5072138;28;20228;-80
2023/02/22 08:40:32;;;;;;;15.63;6.95;;;11.00;99.90;;;;;;5071104;28;20229;-76
2023/02/22 08:43:00;;;;;;;14.65;8.07;;;11.00;99.90;;;;;;5072143;28;20231;-80
2023/02/22 08:45:27;;;;;;;16.35;7.40;;;11.00;99.90;;;;;;5074070;28;20219;-81
2023/02/22 08:47:56;;;;;;;11.32;6.80;;;11.00;99.90;;;;;;5076112;28;20669;-80
2023/02/22 08:50:25;;;;;;;22.23;8.27;;;11.10;99.90;;;;;;5075460;28;20224;-79
2023/02/22 08:52:52;;;;;;;16.15;7.53;;;11.20;99.90;;;;;;5075766;28;20231;-80
2023/02/22 08:55:24;;;;;;;13.38;7.03;;;11.20;99.90;;;;;;5074966;28;20224;-77
2023/02/22 08:57:56;;;;;;;14.35;6.20;;;11.20;99.90;;;;;;5075625;28;20236;-76
2023/02/22 09:00:24;;;;;;;23.15;7.43;;;11.20;99.90;;;;;;5075224;28;20235;-80
2023/02/22 09:02:52;;;;;;;14.60;5.97;;;11.20;99.90;;;;;;5074492;28;20231;-80
2023/02/22 09:05:20;;;;;;;21.63;6.88;;;11.30;99.90;;;;;;5076195;28;20231;-79
2023/02/22 09:07:51;;;;;;;24.70;7.50;;;11.30;99.90;;;;;;5074510;28;20220;-76
2023/02/22 09:10:24;;;;;;;17.17;7.80;;;11.20;99.90;;;;;;5063479;28;20224;-76
2023/02/22 09:12:51;;;;;;;11.20;8.50;;;11.20;99.90;;;;;;5073652;28;20558;-80
2023/02/22 09:15:19;;;;;;;10.85;6.72;;;11.20;99.90;;;;;;5075531;28;20228;-80
2023/02/22 09:17:48;;;;;;;15.95;7.13;;;11.30;99.90;;;;;;5074763;28;20270;-81
2023/02/22 09:20:18;;;;;;;11.52;6.00;;;11.30;99.90;;;;;;5075858;28;20349;-76
2023/02/22 09:22:45;;;;;;;23.35;7.68;;;11.40;99.90;;;;;;5074693;28;20250;-76
2023/02/22 09:25:13;;;;;;;12.48;6.07;;;11.40;99.90;;;;;;5074831;28;20235;-80
2023/02/22 09:27:45;;;;;;;16.45;6.70;;;11.40;99.90;;;;;;5074614;28;20285;-81
2023/02/22 09:30:22;;;;;;;14.60;6.80;;;11.50;99.90;;;;;;5075106;28;20558;-81
2023/02/22 09:32:50;;;;;;;25.35;6.00;;;11.50;99.90;;;;;;5074372;28;20398;-81
2023/02/22 09:35:17;;;;;;;18.05;5.20;;;11.40;99.90;;;;;;5073948;28;20220;-80
2023/02/22 09:37:47;;;;;;;20.65;6.40;;;11.50;99.90;;;;;;5074609;28;20316;-81
2023/02/22 09:40:23;;;;;;;19.17;6.20;;;11.40;99.90;;;;;;5075404;28;20262;-77
2023/02/22 09:43:03;;;;;;;20.05;5.30;;;11.40;99.90;;;;;;5074469;28;20235;-77
2023/02/22 09:45:35;;;;;;;10.73;4.45;;;11.40;99.90;;;;;;5074846;28;20216;-77
2023/02/22 09:48:06;;;;;;;8.02;5.60;;;11.40;99.90;;;;;;5074680;28;20538;-76
2023/02/22 09:50:37;;;;;;;13.70;6.00;;;11.50;99.90;;;;;;5079909;28;20242;-76
2023/02/22 09:53:07;;;;;;;17.48;5.97;;;11.50;99.90;;;;;;5076840;28;20307;-76
2023/02/22 09:55:56;;;;;;;13.32;5.13;;;11.50;99.90;;;;;;5085480;28;20223;-77
2023/02/22 09:58:36;;;;;;;22.65;5.47;;;11.50;99.90;;;;;;5102300;22;20219;-77
2023/02/22 10:01:25;;;;;;;18.08;5.30;;;11.50;99.90;;;;;;5094601;28;20215;-81
2023/02/22 10:04:00;;;;;;;18.52;5.90;;;11.50;99.90;;;;;;5094706;28;20314;-80
2023/02/22 10:06:33;;;;;;;20.83;5.95;;;11.50;99.90;;;;;;5090132;28;20219;-77
2023/02/22 10:09:14;;;;;;;11.93;5.82;;;11.50;99.90;;;;;;5072285;28;20306;-82
2023/02/22 10:11:55;;;;;;;21.52;7.25;;;11.50;99.90;;;;;;5060976;28;20231;-78
2023/02/22 10:14:44;;;;;;;19.65;6.85;;;11.50;99.90;;;;;;5044816;28;20220;-79
2023/02/22 10:17:21;;;;;;;18.92;7.07;;;11.60;99.90;;;;;;5073500;28;20219;-80
2023/02/22 10:20:06;;;;;;;18.80;6.32;;;11.60;99.90;;;;;;5061836;28;20286;-76
2023/02/22 10:22:47;;;;;;;14.75;5.70;;;11.60;99.90;;;;;;5069989;28;20216;-76
2023/02/22 10:25:18;;;;;;;14.52;6.10;;;11.60;99.90;;;;;;5073291;28;20306;-76
2023/02/22 10:27:53;;;;;;;15.45;5.40;;;11.70;99.90;;;;;;5063296;28;20623;-78
2023/02/22 10:30:24;;;;;;;15.10;5.82;;;11.70;99.90;;;;;;5053482;28;20235;-81
2023/02/22 10:32:58;;;;;;;15.13;6.28;;;11.70;99.90;;;;;;5042520;28;20566;-76
2023/02/22 10:35:28;;;;;;;19.05;5.70;;;11.70;99.90;;;;;;5052803;28;20224;-76
2023/02/22 10:38:00;;;;;;;13.20;5.70;;;11.80;99.90;;;;;;5055034;28;20244;-80
2023/02/22 10:40:38;;;;;;;11.55;7.78;;;11.80;99.90;;;;;;5054414;28;20231;-81
2023/02/22 10:43:06;;;;;;;16.85;5.10;;;11.80;99.90;;;;;;5053424;28;20227;-81
2023/02/22 10:45:36;;;;;;;14.85;6.10;;;11.80;99.90;;;;;;5053967;28;20564;-77
2023/02/22 10:48:10;;;;;;;12.23;5.20;;;11.90;99.90;;;;;;5053549;28;20296;-77
2023/02/22 10:50:39;;;;;;;13.82;4.28;;;11.90;99.90;;;;;;5054305;28;20217;-81
2023/02/22 10:53:07;;;;;;;20.70;5.47;;;11.90;99.90;;;;;;5060468;28;20263;-81
2023/02/22 10:55:34;;;;;;;14.15;4.82;;;12.00;99.90;;;;;;5073618;28;20307;-76
2023/02/22 10:58:05;;;;;;;13.20;4.38;;;12.00;99.90;;;;;;5064298;28;20316;-77
2023/02/22 11:00:39;;;;;;;14.77;4.95;;;12.00;99.90;;;;;;5054226;28;20231;-82
2023/02/22 11:03:17;;;;;;;13.98;4.25;;;11.90;99.90;;;;;;5049783;28;20320;-81
2023/02/22 11:05:44;;;;;;;14.15;4.40;;;12.00;99.90;;;;;;5054034;28;20246;-77
2023/02/22 11:08:27;;;;;;;15.65;5.13;;;11.90;99.90;;;;;;5068362;28;20319;-82
2023/02/22 11:10:56;;;;;;;14.43;4.90;;;11.90;99.90;;;;;;5059112;28;20573;-81
2023/02/22 11:13:32;;;;;;;15.32;5.93;;;11.90;99.90;;;;;;5052772;28;20244;-77
2023/02/22 11:16:18;;;;;;;12.32;5.03;;;11.80;99.90;;;;;;5052086;28;20235;-81
2023/02/22 11:18:47;;;;;;;16.17;5.22;;;11.80;99.90;;;;;;5052189;28;20266;-81
2023/02/22 11:21:23;;;;;;;16.55;4.45;;;11.80;99.90;;;;;;5053352;28;20216;-80
2023/02/22 11:24:00;;;;;;;10.38;4.63;;;11.80;99.90;;;;;;5052229;28;20673;-81
2023/02/22 11:26:29;;;;;;;15.35;6.10;;;11.90;99.90;;;;;;5052943;28;20217;-77
2023/02/22 11:28:57;;;;;;;13.02;5.43;;;11.80;99.90;;;;;;5053023;28;20655;-81
2023/02/22 11:31:31;;;;;;;15.77;6.13;;;11.70;99.90;;;;;;5052879;28;20216;-80
2023/02/22 11:34:00;;;;;;;16.70;6.00;;;11.80;99.90;;;;;;5052019;28;20322;-80
2023/02/22 11:36:36;;;;;;;11.07;4.70;;;11.90;99.90;;;;;;5052166;28;20614;-77
2023/02/22 11:39:05;;;;;;;10.75;4.90;;;11.90;99.90;;;;;;5052568;28;20231;-76
2023/02/22 11:41:34;;;;;;;11.40;4.47;;;12.00;99.90;;;;;;5051897;28;20602;-76
2023/02/22 11:44:14;;;;;;;12.43;4.68;;;11.90;99.90;;;;;;5051986;28;20243;-76
2023/02/22 11:46:43;;;;;;;11.32;4.80;;;11.90;99.90;;;;;;5052051;28;20556;-78
2023/02/22 11:49:16;;;;;;;15.27;5.13;;;12.00;99.90;;;;;;5052591;28;20569;-76
2023/02/22 11:51:54;;;;;;;10.25;4.45;;;11.90;99.90;;;;;;5052231;28;20320;-79
2023/02/22 11:54:39;;;;;;;11.63;5.13;;;11.90;99.90;;;;;;5055207;28;20216;-76
2023/02/22 11:57:20;;;;;;;11.23;4.85;;;11.90;99.90;;;;;;5063251;28;20231;-75
2023/02/22 11:59:57;;;;;;;12.00;5.15;;;12.00;99.90;;;;;;5066196;28;20746;-76
2023/02/22 12:02:40;;;;;;;15.75;5.32;;;12.00;99.90;;;;;;5070890;28;20220;-75
2023/02/22 12:05:41;;;;;;;16.20;5.32;;;12.00;99.90;;;;;;5069373;28;20345;-75
2023/02/22 12:08:20;;;;;;;16.55;4.93;;;11.90;99.90;;;;;;5069584;28;20708;-78
2023/02/22 12:11:01;;;;;;;16.17;5.97;;;11.90;99.90;;;;;;5069932;28;20224;-79
2023/02/22 12:13:44;;;;;;;20.40;5.32;;;11.80;99.90;;;;;;5071175;28;20224;-75
2023/02/22 12:16:22;;;;;;;14.05;5.00;;;11.80;99.90;;;;;;5072454;28;20262;-79
2023/02/22 12:19:05;;;;;;;12.55;4.50;;;11.90;99.90;;;;;;5062551;28;20224;-76
2023/02/22 12:21:42;;;;;;;15.43;5.65;;;11.90;99.90;;;;;;5061985;28;20621;-75
2023/02/22 12:24:15;;;;;;;15.50;5.32;;;11.90;99.90;;;;;;5076004;28;20226;-75
2023/02/22 12:26:47;;;;;;;10.38;5.28;;;12.00;99.90;;;;;;5076771;28;20222;-79
2023/02/22 12:29:21;;;;;;;13.32;4.38;;;12.00;99.90;;;;;;5076280;28;20243;-77
2023/02/22 12:31:53;;;;;;;13.90;5.07;;;12.00;99.90;;;;;;5076421;28;20237;-77
2023/02/22 12:34:30;;;;;;;18.85;5.00;;;12.00;99.90;;;;;;5076600;28;20633;-74
2023/02/22 12:37:06;;;;;;;17.30;4.40;;;12.10;99.90;;;;;;5075933;28;20591;-75
2023/02/22 12:39:44;;;;;;;13.38;4.97;;;12.10;99.90;;;;;;5076190;28;20575;-75
2023/02/22 12:42:17;;;;;;;10.35;3.63;;;12.00;99.90;;;;;;5076212;28;20216;-75
2023/02/22 12:44:48;;;;;;;27.02;5.53;;;12.10;99.90;;;;;;5076120;28;20649;-76
2023/02/22 12:47:29;;;;;;;13.40;4.30;;;12.00;99.90;;;;;;5076006;28;20234;-76
2023/02/22 12:50:05;;;;;;;15.20;4.43;;;12.00;99.90;;;;;;5075619;28;20224;-76
2023/02/22 12:52:48;;;;;;;15.40;4.40;;;12.00;99.90;;;;;;5075830;28;20224;-79
2023/02/22 12:55:20;;;;;;;14.95;6.35;;;11.90;99.90;;;;;;5057382;28;20236;-79
2023/02/22 12:57:53;;;;;;;16.67;5.35;;;11.90;99.90;;;;;;5068582;28;20246;-76
2023/02/22 13:00:27;;;;;;;13.63;3.97;;;11.90;99.90;;;;;;5075740;28;20223;-79
2023/02/22 13:03:02;;;;;;;9.90;3.72;;;12.00;99.90;;;;;;5076984;28;20294;-76